• Join FlightAware (Why Join?)
  • Login
  • US Flag 
04:23AM EDT


 

Airport Tracker/Info


-or-


 

Live Flight TrackerFlight Track Log ✈ N785JP ✈ 04-Sep-2013 ✈ 5B2 - KMSS

Flight Track Log - Related Links

Times and Time Zones

All times are in EDT time to prevent confusion due to time zone crossing. See the N785JP flight status page for this flight to view local times or setup timezone preferences in your user account.

Time Position Orientation Groundspeed Altitude Reporting Facility
EDT Latitude Longitude Course Direction KTS MPH feet Rate Location/Type
06:20AM 43.0375 -73.8747 260° West 118 136 900  Level Boston Center
06:21AM 43.0306 -73.9311 260° West 138 159 2,600 1,440 Climbing Boston Center
06:22AM 43.0597 -73.9347 355° North 145 167 3,700 1,500 Climbing Boston Center
06:23AM 43.0969 -73.9414 353° North 150 173 5,300 1,380 Climbing Boston Center
06:24AM 43.1322 -73.9564 343° North 143 165 6,600 1,260 Climbing Boston Center
06:25AM 43.1694 -73.9744 341° North 143 165 8,000 1,260 Climbing Boston Center
06:26AM 43.2067 -73.9925 341° North 143 165 9,200 1,320 Climbing Boston Center
06:27AM 43.2483 -74.0106 342° North 150 173 10,700 1,080 Climbing Boston Center
06:28AM 43.2875 -74.0317 339° North 145 167 11,400 600 Climbing Boston Center
06:29AM 43.3372 -74.0531 343° North 166 191 12,000 300 Climbing Boston Center
06:30AM 43.3889 -74.0800 339° North 183 211 12,000  Level Boston Center
06:31AM 43.4450 -74.1044 342° North 194 223 12,000  Level Boston Center
06:32AM 43.5028 -74.1347 339° North 205 236 12,000  Level Boston Center
06:33AM 43.5608 -74.1619 341° North 210 242 12,000  Level Boston Center
06:34AM 43.6167 -74.1867 342° North 215 247 12,000  Level Boston Center
06:35AM 43.6703 -74.2169 338° Northwest 209 241 12,000  Level Boston Center
06:36AM 43.7264 -74.2414 343° North 209 241 12,000  Level Boston Center
06:37AM 43.7842 -74.2692 341° North 209 241 12,000  Level Boston Center
06:38AM 43.8400 -74.2994 339° North 209 241 12,000  Level Boston Center
06:39AM 43.8936 -74.3242 342° North 209 241 12,000 -60 Level Boston Center
06:40AM 43.9494 -74.3492 342° North 209 241 11,900 -60 Descending Boston Center
06:41AM 44.0033 -74.3769 340° North 209 241 11,900  Level Boston Center
06:42AM 44.0592 -74.4047 340° North 209 241 11,900  Level Boston Center
06:43AM 44.1108 -74.4267 343° North 204 235 11,900  Level Boston Center
06:44AM 44.1644 -74.4544 340° North 204 235 11,900  Level Boston Center
06:45AM 44.2222 -74.4853 339° North 210 242 11,900 -180 Level Boston Center
06:46AM 44.2761 -74.5103 342° North 210 242 11,600 -600 Descending Boston Center
06:47AM 44.3381 -74.5417 340° North 210 242 10,800 -840 Descending Boston Center
06:48AM 44.3936 -74.5697 340° North 210 242 10,000 -840 Descending Boston Center
06:49AM 44.4517 -74.5981 341° North 210 242 9,200 -900 Descending Boston Center
06:50AM 44.5072 -74.6261 340° North 210 242 8,300 -900 Descending Boston Center
06:51AM 44.5631 -74.6544 340° North 210 242 7,400 -900 Descending Boston Center
06:52AM 44.6186 -74.6828 340° North 210 242 6,500 -900 Descending Boston Center